sensor_id;sensor_type;location;lat;lon;timestamp;P1;durP1;ratioP1;P2;durP2;ratioP2
23266;SDS011;11802;53.160;8.214;2023-12-22T00:00:29;10.27;;;2.13;;
23266;SDS011;11802;53.160;8.214;2023-12-22T00:02:54;14.17;;;2.00;;
23266;SDS011;11802;53.160;8.214;2023-12-22T00:05:20;9.93;;;2.17;;
23266;SDS011;11802;53.160;8.214;2023-12-22T00:07:45;12.70;;;2.20;;
23266;SDS011;11802;53.160;8.214;2023-12-22T00:10:11;10.13;;;1.70;;
23266;SDS011;11802;53.160;8.214;2023-12-22T00:12:36;13.37;;;1.50;;
23266;SDS011;11802;53.160;8.214;2023-12-22T00:15:03;8.30;;;1.73;;
23266;SDS011;11802;53.160;8.214;2023-12-22T00:17:29;8.83;;;1.47;;
23266;SDS011;11802;53.160;8.214;2023-12-22T00:19:55;8.70;;;1.70;;
23266;SDS011;11802;53.160;8.214;2023-12-22T00:22:24;9.80;;;1.90;;
23266;SDS011;11802;53.160;8.214;2023-12-22T00:24:50;8.10;;;1.50;;
23266;SDS011;11802;53.160;8.214;2023-12-22T00:27:16;8.47;;;2.13;;
23266;SDS011;11802;53.160;8.214;2023-12-22T00:29:42;6.87;;;1.37;;
23266;SDS011;11802;53.160;8.214;2023-12-22T00:32:07;10.60;;;2.00;;
23266;SDS011;11802;53.160;8.214;2023-12-22T00:34:34;8.80;;;1.77;;
23266;SDS011;11802;53.160;8.214;2023-12-22T00:37:00;10.37;;;2.80;;
23266;SDS011;11802;53.160;8.214;2023-12-22T00:39:26;9.80;;;1.67;;
23266;SDS011;11802;53.160;8.214;2023-12-22T00:41:52;10.27;;;1.70;;
23266;SDS011;11802;53.160;8.214;2023-12-22T00:44:17;13.97;;;2.23;;
23266;SDS011;11802;53.160;8.214;2023-12-22T00:46:43;10.77;;;1.83;;
23266;SDS011;11802;53.160;8.214;2023-12-22T00:49:08;8.67;;;1.67;;
23266;SDS011;11802;53.160;8.214;2023-12-22T00:51:34;11.80;;;2.23;;
23266;SDS011;11802;53.160;8.214;2023-12-22T00:53:59;13.10;;;2.30;;
23266;SDS011;11802;53.160;8.214;2023-12-22T00:56:25;15.13;;;3.27;;
23266;SDS011;11802;53.160;8.214;2023-12-22T00:58:50;11.60;;;2.23;;
23266;SDS011;11802;53.160;8.214;2023-12-22T01:01:16;16.57;;;2.47;;
23266;SDS011;11802;53.160;8.214;2023-12-22T01:03:42;13.17;;;2.23;;
23266;SDS011;11802;53.160;8.214;2023-12-22T01:06:07;12.53;;;2.60;;
23266;SDS011;11802;53.160;8.214;2023-12-22T01:08:33;14.90;;;2.17;;
23266;SDS011;11802;53.160;8.214;2023-12-22T01:11:01;17.17;;;2.60;;
23266;SDS011;11802;53.160;8.214;2023-12-22T01:13:26;13.70;;;2.30;;
23266;SDS011;11802;53.160;8.214;2023-12-22T01:15:52;13.37;;;3.37;;
23266;SDS011;11802;53.160;8.214;2023-12-22T01:18:17;12.80;;;3.23;;
23266;SDS011;11802;53.160;8.214;2023-12-22T01:20:43;11.47;;;1.87;;
23266;SDS011;11802;53.160;8.214;2023-12-22T01:23:09;7.60;;;1.70;;
23266;SDS011;11802;53.160;8.214;2023-12-22T01:25:34;7.27;;;1.73;;
23266;SDS011;11802;53.160;8.214;2023-12-22T01:28:00;8.00;;;1.47;;
23266;SDS011;11802;53.160;8.214;2023-12-22T01:30:25;10.33;;;1.87;;
23266;SDS011;11802;53.160;8.214;2023-12-22T01:32:51;10.10;;;2.03;;
23266;SDS011;11802;53.160;8.214;2023-12-22T01:35:16;11.43;;;2.10;;
23266;SDS011;11802;53.160;8.214;2023-12-22T01:37:42;15.00;;;2.60;;
23266;SDS011;11802;53.160;8.214;2023-12-22T01:40:07;16.17;;;2.53;;
23266;SDS011;11802;53.160;8.214;2023-12-22T01:42:33;10.60;;;2.60;;
23266;SDS011;11802;53.160;8.214;2023-12-22T01:44:59;11.00;;;2.90;;
23266;SDS011;11802;53.160;8.214;2023-12-22T01:47:24;12.57;;;1.67;;
23266;SDS011;11802;53.160;8.214;2023-12-22T01:49:50;8.37;;;1.87;;
23266;SDS011;11802;53.160;8.214;2023-12-22T01:52:17;12.20;;;2.07;;
23266;SDS011;11802;53.160;8.214;2023-12-22T01:54:43;10.00;;;1.70;;
23266;SDS011;11802;53.160;8.214;2023-12-22T01:57:09;7.50;;;1.67;;
23266;SDS011;11802;53.160;8.214;2023-12-22T01:59:38;16.27;;;1.90;;
23266;SDS011;11802;53.160;8.214;2023-12-22T02:02:04;10.00;;;2.03;;
23266;SDS011;11802;53.160;8.214;2023-12-22T02:04:30;10.87;;;1.97;;
23266;SDS011;11802;53.160;8.214;2023-12-22T02:07:01;12.70;;;1.90;;
23266;SDS011;11802;53.160;8.214;2023-12-22T02:09:28;16.77;;;2.10;;
23266;SDS011;11802;53.160;8.214;2023-12-22T02:11:53;17.63;;;2.67;;
23266;SDS011;11802;53.160;8.214;2023-12-22T02:14:19;14.47;;;2.33;;
23266;SDS011;11802;53.160;8.214;2023-12-22T02:16:46;14.80;;;2.63;;
23266;SDS011;11802;53.160;8.214;2023-12-22T02:19:27;16.13;;;1.77;;
23266;SDS011;11802;53.160;8.214;2023-12-22T02:22:06;10.27;;;2.47;;
23266;SDS011;11802;53.160;8.214;2023-12-22T02:24:33;10.97;;;1.57;;
23266;SDS011;11802;53.160;8.214;2023-12-22T02:27:05;13.53;;;2.40;;
23266;SDS011;11802;53.160;8.214;2023-12-22T02:29:37;19.53;;;2.23;;
23266;SDS011;11802;53.160;8.214;2023-12-22T02:32:14;13.27;;;2.27;;
23266;SDS011;11802;53.160;8.214;2023-12-22T02:34:49;12.77;;;1.83;;
23266;SDS011;11802;53.160;8.214;2023-12-22T02:37:17;13.40;;;2.37;;
23266;SDS011;11802;53.160;8.214;2023-12-22T02:39:44;14.53;;;1.97;;
23266;SDS011;11802;53.160;8.214;2023-12-22T02:42:10;13.17;;;2.30;;
23266;SDS011;11802;53.160;8.214;2023-12-22T02:44:37;16.77;;;2.30;;
23266;SDS011;11802;53.160;8.214;2023-12-22T02:47:03;14.87;;;2.10;;
23266;SDS011;11802;53.160;8.214;2023-12-22T02:49:29;9.80;;;2.07;;
23266;SDS011;11802;53.160;8.214;2023-12-22T02:51:54;13.90;;;1.97;;
23266;SDS011;11802;53.160;8.214;2023-12-22T02:54:20;13.37;;;1.70;;
23266;SDS011;11802;53.160;8.214;2023-12-22T02:56:46;21.07;;;3.27;;
23266;SDS011;11802;53.160;8.214;2023-12-22T02:59:12;8.70;;;1.70;;
23266;SDS011;11802;53.160;8.214;2023-12-22T03:01:37;12.30;;;2.23;;
23266;SDS011;11802;53.160;8.214;2023-12-22T03:04:03;12.80;;;3.87;;
23266;SDS011;11802;53.160;8.214;2023-12-22T03:06:29;14.60;;;2.60;;
23266;SDS011;11802;53.160;8.214;2023-12-22T03:08:54;16.20;;;2.23;;
23266;SDS011;11802;53.160;8.214;2023-12-22T03:11:20;11.97;;;1.83;;
23266;SDS011;11802;53.160;8.214;2023-12-22T03:13:45;15.00;;;2.23;;
23266;SDS011;11802;53.160;8.214;2023-12-22T03:16:11;7.93;;;2.10;;
23266;SDS011;11802;53.160;8.214;2023-12-22T03:18:39;14.50;;;2.70;;
23266;SDS011;11802;53.160;8.214;2023-12-22T03:21:05;15.43;;;2.50;;
23266;SDS011;11802;53.160;8.214;2023-12-22T03:23:31;14.30;;;2.43;;
23266;SDS011;11802;53.160;8.214;2023-12-22T03:25:56;10.83;;;2.00;;
23266;SDS011;11802;53.160;8.214;2023-12-22T03:28:22;9.97;;;2.33;;
23266;SDS011;11802;53.160;8.214;2023-12-22T03:30:47;7.40;;;2.00;;
23266;SDS011;11802;53.160;8.214;2023-12-22T03:33:13;12.27;;;1.90;;
23266;SDS011;11802;53.160;8.214;2023-12-22T03:35:38;8.90;;;1.37;;
23266;SDS011;11802;53.160;8.214;2023-12-22T03:38:04;15.37;;;2.67;;
23266;SDS011;11802;53.160;8.214;2023-12-22T03:40:29;11.63;;;1.93;;
23266;SDS011;11802;53.160;8.214;2023-12-22T03:42:55;14.07;;;1.60;;
23266;SDS011;11802;53.160;8.214;2023-12-22T03:45:20;10.57;;;2.30;;
23266;SDS011;11802;53.160;8.214;2023-12-22T03:47:46;11.30;;;1.67;;
23266;SDS011;11802;53.160;8.214;2023-12-22T03:50:12;13.33;;;2.43;;
23266;SDS011;11802;53.160;8.214;2023-12-22T03:52:37;14.13;;;2.80;;
23266;SDS011;11802;53.160;8.214;2023-12-22T03:55:03;17.50;;;2.33;;
23266;SDS011;11802;53.160;8.214;2023-12-22T03:57:29;14.77;;;2.27;;
23266;SDS011;11802;53.160;8.214;2023-12-22T03:59:54;22.50;;;3.10;;
23266;SDS011;11802;53.160;8.214;2023-12-22T04:02:20;14.67;;;2.43;;
23266;SDS011;11802;53.160;8.214;2023-12-22T04:04:45;16.13;;;2.50;;
23266;SDS011;11802;53.160;8.214;2023-12-22T04:07:11;14.30;;;3.50;;
23266;SDS011;11802;53.160;8.214;2023-12-22T04:09:37;19.87;;;2.90;;
23266;SDS011;11802;53.160;8.214;2023-12-22T04:12:03;18.87;;;2.50;;
23266;SDS011;11802;53.160;8.214;2023-12-22T04:14:29;18.37;;;3.40;;
23266;SDS011;11802;53.160;8.214;2023-12-22T04:16:55;17.93;;;3.23;;
23266;SDS011;11802;53.160;8.214;2023-12-22T04:19:21;15.33;;;2.77;;
23266;SDS011;11802;53.160;8.214;2023-12-22T04:21:47;20.73;;;3.10;;
23266;SDS011;11802;53.160;8.214;2023-12-22T04:24:12;16.47;;;2.90;;
23266;SDS011;11802;53.160;8.214;2023-12-22T04:26:38;20.10;;;3.17;;
23266;SDS011;11802;53.160;8.214;2023-12-22T04:29:03;15.30;;;2.63;;
23266;SDS011;11802;53.160;8.214;2023-12-22T04:31:29;17.83;;;2.63;;
23266;SDS011;11802;53.160;8.214;2023-12-22T04:33:54;18.97;;;2.53;;
23266;SDS011;11802;53.160;8.214;2023-12-22T04:36:20;16.57;;;3.03;;
23266;SDS011;11802;53.160;8.214;2023-12-22T04:38:46;14.90;;;2.23;;
23266;SDS011;11802;53.160;8.214;2023-12-22T04:41:11;11.77;;;2.60;;
23266;SDS011;11802;53.160;8.214;2023-12-22T04:43:37;21.90;;;2.90;;
23266;SDS011;11802;53.160;8.214;2023-12-22T04:46:02;20.20;;;2.63;;
23266;SDS011;11802;53.160;8.214;2023-12-22T04:48:28;19.17;;;2.90;;
23266;SDS011;11802;53.160;8.214;2023-12-22T04:50:54;17.73;;;2.53;;
23266;SDS011;11802;53.160;8.214;2023-12-22T04:53:19;19.70;;;2.70;;
23266;SDS011;11802;53.160;8.214;2023-12-22T04:55:45;12.40;;;2.60;;
23266;SDS011;11802;53.160;8.214;2023-12-22T04:58:11;22.43;;;2.80;;
23266;SDS011;11802;53.160;8.214;2023-12-22T05:00:36;16.23;;;2.83;;
23266;SDS011;11802;53.160;8.214;2023-12-22T05:03:02;13.43;;;2.47;;
23266;SDS011;11802;53.160;8.214;2023-12-22T05:05:28;13.80;;;3.17;;
23266;SDS011;11802;53.160;8.214;2023-12-22T05:07:54;8.80;;;1.70;;
23266;SDS011;11802;53.160;8.214;2023-12-22T05:10:19;13.73;;;2.20;;
23266;SDS011;11802;53.160;8.214;2023-12-22T05:12:45;11.00;;;1.60;;
23266;SDS011;11802;53.160;8.214;2023-12-22T05:15:11;7.83;;;1.53;;
23266;SDS011;11802;53.160;8.214;2023-12-22T05:17:36;9.13;;;2.10;;
23266;SDS011;11802;53.160;8.214;2023-12-22T05:20:02;8.50;;;1.60;;
23266;SDS011;11802;53.160;8.214;2023-12-22T05:22:28;9.20;;;1.50;;
23266;SDS011;11802;53.160;8.214;2023-12-22T05:24:57;6.97;;;1.47;;
23266;SDS011;11802;53.160;8.214;2023-12-22T05:27:23;8.33;;;1.50;;
23266;SDS011;11802;53.160;8.214;2023-12-22T05:29:49;5.47;;;0.97;;
23266;SDS011;11802;53.160;8.214;2023-12-22T05:32:15;4.90;;;1.23;;
23266;SDS011;11802;53.160;8.214;2023-12-22T05:34:40;4.27;;;1.00;;
23266;SDS011;11802;53.160;8.214;2023-12-22T05:37:06;5.57;;;1.40;;
23266;SDS011;11802;53.160;8.214;2023-12-22T05:39:31;6.40;;;1.30;;
23266;SDS011;11802;53.160;8.214;2023-12-22T05:41:57;8.60;;;1.20;;
23266;SDS011;11802;53.160;8.214;2023-12-22T05:44:23;11.43;;;1.70;;
23266;SDS011;11802;53.160;8.214;2023-12-22T05:46:49;12.03;;;1.90;;
23266;SDS011;11802;53.160;8.214;2023-12-22T05:49:15;10.83;;;2.20;;
23266;SDS011;11802;53.160;8.214;2023-12-22T05:51:40;9.33;;;2.10;;
23266;SDS011;11802;53.160;8.214;2023-12-22T05:54:07;14.27;;;2.23;;
23266;SDS011;11802;53.160;8.214;2023-12-22T05:56:33;6.97;;;1.50;;
23266;SDS011;11802;53.160;8.214;2023-12-22T05:58:59;12.00;;;1.80;;
23266;SDS011;11802;53.160;8.214;2023-12-22T06:01:24;10.60;;;2.30;;
23266;SDS011;11802;53.160;8.214;2023-12-22T06:03:50;11.50;;;2.10;;
23266;SDS011;11802;53.160;8.214;2023-12-22T06:06:16;19.63;;;2.77;;
23266;SDS011;11802;53.160;8.214;2023-12-22T06:08:42;14.77;;;2.47;;
23266;SDS011;11802;53.160;8.214;2023-12-22T06:11:08;13.60;;;2.53;;
23266;SDS011;11802;53.160;8.214;2023-12-22T06:13:33;14.37;;;2.70;;
23266;SDS011;11802;53.160;8.214;2023-12-22T06:15:59;21.37;;;3.07;;
23266;SDS011;11802;53.160;8.214;2023-12-22T06:18:25;21.23;;;2.90;;
23266;SDS011;11802;53.160;8.214;2023-12-22T06:20:50;20.50;;;3.30;;
23266;SDS011;11802;53.160;8.214;2023-12-22T06:23:17;17.37;;;2.33;;
23266;SDS011;11802;53.160;8.214;2023-12-22T06:25:43;16.67;;;3.40;;
23266;SDS011;11802;53.160;8.214;2023-12-22T06:28:09;16.73;;;2.37;;
23266;SDS011;11802;53.160;8.214;2023-12-22T06:30:35;21.63;;;2.77;;
23266;SDS011;11802;53.160;8.214;2023-12-22T06:33:00;19.77;;;3.70;;
23266;SDS011;11802;53.160;8.214;2023-12-22T06:35:26;14.13;;;3.13;;
23266;SDS011;11802;53.160;8.214;2023-12-22T06:37:52;16.23;;;2.80;;
23266;SDS011;11802;53.160;8.214;2023-12-22T06:40:19;18.53;;;3.07;;
23266;SDS011;11802;53.160;8.214;2023-12-22T06:42:45;20.10;;;3.53;;
23266;SDS011;11802;53.160;8.214;2023-12-22T06:45:10;22.07;;;3.13;;
23266;SDS011;11802;53.160;8.214;2023-12-22T06:47:36;25.17;;;4.23;;
23266;SDS011;11802;53.160;8.214;2023-12-22T06:50:02;29.10;;;3.93;;
23266;SDS011;11802;53.160;8.214;2023-12-22T06:52:28;21.60;;;3.30;;
23266;SDS011;11802;53.160;8.214;2023-12-22T06:54:55;22.40;;;4.10;;
23266;SDS011;11802;53.160;8.214;2023-12-22T06:57:21;23.87;;;3.57;;
23266;SDS011;11802;53.160;8.214;2023-12-22T06:59:47;26.47;;;3.97;;
23266;SDS011;11802;53.160;8.214;2023-12-22T07:02:14;29.00;;;5.07;;
23266;SDS011;11802;53.160;8.214;2023-12-22T07:07:36;23.33;;;4.00;;
23266;SDS011;11802;53.160;8.214;2023-12-22T07:10:02;24.93;;;3.63;;
23266;SDS011;11802;53.160;8.214;2023-12-22T07:12:28;26.50;;;4.47;;
23266;SDS011;11802;53.160;8.214;2023-12-22T07:14:54;23.77;;;3.23;;
23266;SDS011;11802;53.160;8.214;2023-12-22T07:17:19;22.57;;;3.33;;
23266;SDS011;11802;53.160;8.214;2023-12-22T07:19:45;13.00;;;3.00;;
23266;SDS011;11802;53.160;8.214;2023-12-22T07:22:10;13.73;;;2.63;;
23266;SDS011;11802;53.160;8.214;2023-12-22T07:24:36;14.30;;;3.27;;
23266;SDS011;11802;53.160;8.214;2023-12-22T07:27:02;14.00;;;2.73;;
23266;SDS011;11802;53.160;8.214;2023-12-22T07:29:28;13.03;;;3.00;;
23266;SDS011;11802;53.160;8.214;2023-12-22T07:31:54;13.90;;;2.50;;
23266;SDS011;11802;53.160;8.214;2023-12-22T07:34:19;13.50;;;2.60;;
23266;SDS011;11802;53.160;8.214;2023-12-22T07:36:47;15.73;;;2.90;;
23266;SDS011;11802;53.160;8.214;2023-12-22T07:39:12;14.13;;;3.10;;
23266;SDS011;11802;53.160;8.214;2023-12-22T07:41:39;13.90;;;3.30;;
23266;SDS011;11802;53.160;8.214;2023-12-22T07:44:05;17.53;;;3.30;;
23266;SDS011;11802;53.160;8.214;2023-12-22T07:46:30;16.93;;;3.00;;
23266;SDS011;11802;53.160;8.214;2023-12-22T07:48:56;19.00;;;3.27;;
23266;SDS011;11802;53.160;8.214;2023-12-22T07:51:21;20.03;;;2.93;;
23266;SDS011;11802;53.160;8.214;2023-12-22T07:53:51;18.07;;;3.23;;
23266;SDS011;11802;53.160;8.214;2023-12-22T07:56:16;24.63;;;3.73;;
23266;SDS011;11802;53.160;8.214;2023-12-22T07:58:42;21.77;;;3.87;;
23266;SDS011;11802;53.160;8.214;2023-12-22T08:01:08;18.73;;;3.60;;
23266;SDS011;11802;53.160;8.214;2023-12-22T08:03:33;18.03;;;3.83;;
23266;SDS011;11802;53.160;8.214;2023-12-22T08:05:59;26.00;;;3.47;;
23266;SDS011;11802;53.160;8.214;2023-12-22T08:08:24;23.47;;;4.33;;
23266;SDS011;11802;53.160;8.214;2023-12-22T08:10:50;20.30;;;3.33;;
23266;SDS011;11802;53.160;8.214;2023-12-22T08:13:16;19.73;;;3.90;;
23266;SDS011;11802;53.160;8.214;2023-12-22T08:15:42;20.00;;;3.50;;
23266;SDS011;11802;53.160;8.214;2023-12-22T08:18:09;15.07;;;2.57;;
23266;SDS011;11802;53.160;8.214;2023-12-22T08:20:35;18.80;;;3.10;;
23266;SDS011;11802;53.160;8.214;2023-12-22T08:23:01;18.77;;;3.60;;
23266;SDS011;11802;53.160;8.214;2023-12-22T08:25:27;13.13;;;2.87;;
23266;SDS011;11802;53.160;8.214;2023-12-22T08:27:53;18.93;;;3.40;;
23266;SDS011;11802;53.160;8.214;2023-12-22T08:30:18;17.43;;;3.47;;
23266;SDS011;11802;53.160;8.214;2023-12-22T08:32:44;18.27;;;3.37;;
23266;SDS011;11802;53.160;8.214;2023-12-22T08:35:10;16.90;;;3.20;;
23266;SDS011;11802;53.160;8.214;2023-12-22T08:37:35;16.17;;;2.87;;
23266;SDS011;11802;53.160;8.214;2023-12-22T08:40:02;13.27;;;3.10;;
23266;SDS011;11802;53.160;8.214;2023-12-22T08:42:28;19.63;;;3.43;;
23266;SDS011;11802;53.160;8.214;2023-12-22T08:44:55;21.40;;;3.50;;
23266;SDS011;11802;53.160;8.214;2023-12-22T08:47:21;21.33;;;3.30;;
23266;SDS011;11802;53.160;8.214;2023-12-22T08:49:47;18.00;;;3.00;;
23266;SDS011;11802;53.160;8.214;2023-12-22T08:52:12;15.63;;;2.83;;
23266;SDS011;11802;53.160;8.214;2023-12-22T08:54:38;16.53;;;2.80;;
23266;SDS011;11802;53.160;8.214;2023-12-22T08:57:04;13.73;;;2.17;;
23266;SDS011;11802;53.160;8.214;2023-12-22T08:59:30;15.03;;;2.80;;
23266;SDS011;11802;53.160;8.214;2023-12-22T09:01:55;16.67;;;2.83;;
23266;SDS011;11802;53.160;8.214;2023-12-22T09:04:21;14.20;;;2.50;;
23266;SDS011;11802;53.160;8.214;2023-12-22T09:06:47;22.77;;;3.00;;
23266;SDS011;11802;53.160;8.214;2023-12-22T09:09:13;18.43;;;3.17;;
23266;SDS011;11802;53.160;8.214;2023-12-22T09:11:39;15.60;;;2.40;;
23266;SDS011;11802;53.160;8.214;2023-12-22T09:14:08;10.37;;;2.03;;
23266;SDS011;11802;53.160;8.214;2023-12-22T09:16:34;12.13;;;2.53;;
23266;SDS011;11802;53.160;8.214;2023-12-22T09:19:01;13.40;;;2.50;;
23266;SDS011;11802;53.160;8.214;2023-12-22T09:21:26;12.63;;;2.37;;
23266;SDS011;11802;53.160;8.214;2023-12-22T09:23:52;7.83;;;1.53;;
23266;SDS011;11802;53.160;8.214;2023-12-22T09:26:18;12.33;;;1.80;;
23266;SDS011;11802;53.160;8.214;2023-12-22T09:28:43;9.23;;;1.40;;
23266;SDS011;11802;53.160;8.214;2023-12-22T09:31:10;9.60;;;1.90;;
23266;SDS011;11802;53.160;8.214;2023-12-22T09:33:40;10.23;;;2.00;;
23266;SDS011;11802;53.160;8.214;2023-12-22T09:36:06;14.47;;;1.93;;
23266;SDS011;11802;53.160;8.214;2023-12-22T09:38:32;8.93;;;1.37;;
23266;SDS011;11802;53.160;8.214;2023-12-22T09:40:58;12.43;;;1.93;;
23266;SDS011;11802;53.160;8.214;2023-12-22T09:43:27;7.77;;;1.63;;
23266;SDS011;11802;53.160;8.214;2023-12-22T09:45:54;8.47;;;1.97;;
23266;SDS011;11802;53.160;8.214;2023-12-22T09:48:20;15.40;;;2.00;;
23266;SDS011;11802;53.160;8.214;2023-12-22T09:50:54;12.30;;;2.37;;
23266;SDS011;11802;53.160;8.214;2023-12-22T09:53:29;13.50;;;2.23;;
23266;SDS011;11802;53.160;8.214;2023-12-22T09:55:56;13.03;;;2.50;;
23266;SDS011;11802;53.160;8.214;2023-12-22T09:58:24;14.57;;;2.97;;
23266;SDS011;11802;53.160;8.214;2023-12-22T10:00:50;10.63;;;2.50;;
23266;SDS011;11802;53.160;8.214;2023-12-22T10:03:17;18.33;;;2.87;;
23266;SDS011;11802;53.160;8.214;2023-12-22T10:05:45;16.07;;;2.50;;
23266;SDS011;11802;53.160;8.214;2023-12-22T10:08:11;20.23;;;3.27;;
23266;SDS011;11802;53.160;8.214;2023-12-22T10:10:38;16.53;;;2.53;;
23266;SDS011;11802;53.160;8.214;2023-12-22T10:13:05;17.57;;;2.30;;
23266;SDS011;11802;53.160;8.214;2023-12-22T10:15:35;18.77;;;2.73;;
23266;SDS011;11802;53.160;8.214;2023-12-22T10:18:06;15.20;;;3.10;;
23266;SDS011;11802;53.160;8.214;2023-12-22T10:20:34;14.13;;;2.80;;
23266;SDS011;11802;53.160;8.214;2023-12-22T10:23:01;14.07;;;2.73;;
23266;SDS011;11802;53.160;8.214;2023-12-22T10:25:32;13.03;;;2.90;;
23266;SDS011;11802;53.160;8.214;2023-12-22T10:28:00;15.00;;;3.77;;
23266;SDS011;11802;53.160;8.214;2023-12-22T10:30:27;13.87;;;3.80;;
23266;SDS011;11802;53.160;8.214;2023-12-22T10:32:57;13.93;;;2.80;;
23266;SDS011;11802;53.160;8.214;2023-12-22T10:35:23;15.60;;;2.57;;
23266;SDS011;11802;53.160;8.214;2023-12-22T10:37:49;12.07;;;2.00;;
23266;SDS011;11802;53.160;8.214;2023-12-22T10:40:18;10.73;;;2.40;;
23266;SDS011;11802;53.160;8.214;2023-12-22T10:42:45;18.20;;;2.97;;
23266;SDS011;11802;53.160;8.214;2023-12-22T10:45:13;15.80;;;3.43;;
23266;SDS011;11802;53.160;8.214;2023-12-22T10:47:40;12.83;;;2.30;;
23266;SDS011;11802;53.160;8.214;2023-12-22T10:50:06;12.77;;;1.90;;
23266;SDS011;11802;53.160;8.214;2023-12-22T10:52:32;12.60;;;2.63;;
23266;SDS011;11802;53.160;8.214;2023-12-22T10:54:58;17.60;;;2.97;;
23266;SDS011;11802;53.160;8.214;2023-12-22T10:57:25;14.30;;;2.30;;
23266;SDS011;11802;53.160;8.214;2023-12-22T10:59:52;13.40;;;2.60;;
23266;SDS011;11802;53.160;8.214;2023-12-22T11:02:19;14.33;;;2.93;;
23266;SDS011;11802;53.160;8.214;2023-12-22T11:04:52;14.50;;;2.47;;
23266;SDS011;11802;53.160;8.214;2023-12-22T11:07:30;10.30;;;3.10;;
23266;SDS011;11802;53.160;8.214;2023-12-22T11:10:02;14.83;;;2.87;;
23266;SDS011;11802;53.160;8.214;2023-12-22T11:12:35;13.77;;;2.77;;
23266;SDS011;11802;53.160;8.214;2023-12-22T11:15:02;18.30;;;2.67;;
23266;SDS011;11802;53.160;8.214;2023-12-22T11:17:31;11.60;;;2.30;;
23266;SDS011;11802;53.160;8.214;2023-12-22T11:19:58;12.40;;;2.33;;
23266;SDS011;11802;53.160;8.214;2023-12-22T11:22:24;12.60;;;3.03;;
23266;SDS011;11802;53.160;8.214;2023-12-22T11:24:51;10.30;;;2.70;;
23266;SDS011;11802;53.160;8.214;2023-12-22T11:27:20;12.67;;;2.20;;
23266;SDS011;11802;53.160;8.214;2023-12-22T11:29:49;14.70;;;2.50;;
23266;SDS011;11802;53.160;8.214;2023-12-22T11:32:16;11.47;;;2.10;;
23266;SDS011;11802;53.160;8.214;2023-12-22T11:34:43;8.03;;;2.00;;
23266;SDS011;11802;53.160;8.214;2023-12-22T11:37:11;11.20;;;2.43;;
23266;SDS011;11802;53.160;8.214;2023-12-22T11:39:37;9.50;;;1.80;;
23266;SDS011;11802;53.160;8.214;2023-12-22T11:42:04;10.00;;;1.57;;
23266;SDS011;11802;53.160;8.214;2023-12-22T11:44:31;11.27;;;2.07;;
23266;SDS011;11802;53.160;8.214;2023-12-22T11:47:06;11.40;;;1.97;;
23266;SDS011;11802;53.160;8.214;2023-12-22T11:49:34;16.10;;;2.13;;
23266;SDS011;11802;53.160;8.214;2023-12-22T11:54:58;9.27;;;2.10;;
23266;SDS011;11802;53.160;8.214;2023-12-22T11:59:52;10.63;;;2.00;;
23266;SDS011;11802;53.160;8.214;2023-12-22T12:02:18;12.33;;;2.10;;
23266;SDS011;11802;53.160;8.214;2023-12-22T12:04:47;10.30;;;2.00;;
23266;SDS011;11802;53.160;8.214;2023-12-22T12:08:02;10.97;;;2.03;;
23266;SDS011;11802;53.160;8.214;2023-12-22T12:10:09;12.80;;;1.90;;
23266;SDS011;11802;53.160;8.214;2023-12-22T12:12:35;9.47;;;1.80;;
23266;SDS011;11802;53.160;8.214;2023-12-22T12:15:17;10.30;;;1.80;;
23266;SDS011;11802;53.160;8.214;2023-12-22T12:17:45;11.43;;;2.20;;
23266;SDS011;11802;53.160;8.214;2023-12-22T12:20:11;10.83;;;1.70;;
23266;SDS011;11802;53.160;8.214;2023-12-22T12:22:37;10.00;;;2.10;;
23266;SDS011;11802;53.160;8.214;2023-12-22T12:25:07;13.30;;;2.17;;
23266;SDS011;11802;53.160;8.214;2023-12-22T12:27:35;11.73;;;2.07;;
23266;SDS011;11802;53.160;8.214;2023-12-22T12:30:07;11.67;;;2.10;;
23266;SDS011;11802;53.160;8.214;2023-12-22T12:32:35;7.73;;;1.60;;
23266;SDS011;11802;53.160;8.214;2023-12-22T12:35:01;10.23;;;1.70;;
23266;SDS011;11802;53.160;8.214;2023-12-22T12:37:29;7.20;;;1.80;;
23266;SDS011;11802;53.160;8.214;2023-12-22T12:39:55;8.73;;;1.57;;
23266;SDS011;11802;53.160;8.214;2023-12-22T12:42:24;13.37;;;2.43;;
23266;SDS011;11802;53.160;8.214;2023-12-22T12:44:53;11.10;;;2.13;;
23266;SDS011;11802;53.160;8.214;2023-12-22T12:47:19;12.77;;;2.10;;
23266;SDS011;11802;53.160;8.214;2023-12-22T12:49:45;13.97;;;2.03;;
23266;SDS011;11802;53.160;8.214;2023-12-22T12:52:14;10.57;;;1.77;;
23266;SDS011;11802;53.160;8.214;2023-12-22T12:54:40;10.30;;;2.50;;
23266;SDS011;11802;53.160;8.214;2023-12-22T12:57:06;14.00;;;2.53;;
23266;SDS011;11802;53.160;8.214;2023-12-22T12:59:32;7.33;;;1.93;;
23266;SDS011;11802;53.160;8.214;2023-12-22T13:01:57;6.90;;;2.00;;
23266;SDS011;11802;53.160;8.214;2023-12-22T13:04:35;12.10;;;2.20;;
23266;SDS011;11802;53.160;8.214;2023-12-22T13:07:03;12.10;;;1.80;;
23266;SDS011;11802;53.160;8.214;2023-12-22T13:09:31;7.90;;;1.63;;
23266;SDS011;11802;53.160;8.214;2023-12-22T13:11:58;9.37;;;2.00;;
23266;SDS011;11802;53.160;8.214;2023-12-22T13:14:25;10.30;;;1.87;;
23266;SDS011;11802;53.160;8.214;2023-12-22T13:16:52;8.30;;;2.17;;
23266;SDS011;11802;53.160;8.214;2023-12-22T13:19:25;11.47;;;1.87;;
23266;SDS011;11802;53.160;8.214;2023-12-22T13:21:51;11.90;;;1.83;;
23266;SDS011;11802;53.160;8.214;2023-12-22T13:24:18;11.03;;;2.23;;
23266;SDS011;11802;53.160;8.214;2023-12-22T13:26:44;7.53;;;1.70;;
23266;SDS011;11802;53.160;8.214;2023-12-22T13:29:11;14.53;;;1.93;;
23266;SDS011;11802;53.160;8.214;2023-12-22T13:31:38;15.87;;;2.40;;
23266;SDS011;11802;53.160;8.214;2023-12-22T13:34:09;7.87;;;1.90;;
23266;SDS011;11802;53.160;8.214;2023-12-22T13:36:35;15.43;;;1.87;;
23266;SDS011;11802;53.160;8.214;2023-12-22T13:39:01;11.67;;;2.33;;
23266;SDS011;11802;53.160;8.214;2023-12-22T13:41:39;10.20;;;1.93;;
23266;SDS011;11802;53.160;8.214;2023-12-22T13:44:10;16.50;;;2.17;;
23266;SDS011;11802;53.160;8.214;2023-12-22T13:46:36;9.27;;;1.80;;
23266;SDS011;11802;53.160;8.214;2023-12-22T13:49:05;17.97;;;2.33;;
23266;SDS011;11802;53.160;8.214;2023-12-22T13:51:44;8.13;;;2.13;;
23266;SDS011;11802;53.160;8.214;2023-12-22T13:54:12;10.20;;;1.70;;
23266;SDS011;11802;53.160;8.214;2023-12-22T13:56:38;8.17;;;1.63;;
23266;SDS011;11802;53.160;8.214;2023-12-22T13:59:08;10.13;;;1.77;;
23266;SDS011;11802;53.160;8.214;2023-12-22T14:01:35;10.03;;;1.70;;
23266;SDS011;11802;53.160;8.214;2023-12-22T14:04:01;12.37;;;2.00;;
23266;SDS011;11802;53.160;8.214;2023-12-22T14:06:26;14.13;;;1.87;;
23266;SDS011;11802;53.160;8.214;2023-12-22T14:08:53;11.93;;;2.00;;
23266;SDS011;11802;53.160;8.214;2023-12-22T14:11:19;11.43;;;1.73;;
23266;SDS011;11802;53.160;8.214;2023-12-22T14:13:45;12.87;;;1.63;;
23266;SDS011;11802;53.160;8.214;2023-12-22T14:16:10;9.27;;;1.43;;
23266;SDS011;11802;53.160;8.214;2023-12-22T14:18:36;5.57;;;1.40;;
23266;SDS011;11802;53.160;8.214;2023-12-22T14:21:02;10.53;;;2.20;;
23266;SDS011;11802;53.160;8.214;2023-12-22T14:23:30;7.57;;;1.50;;
23266;SDS011;11802;53.160;8.214;2023-12-22T14:25:55;7.03;;;1.57;;
23266;SDS011;11802;53.160;8.214;2023-12-22T14:28:21;9.57;;;1.37;;
23266;SDS011;11802;53.160;8.214;2023-12-22T14:30:47;8.97;;;1.60;;
23266;SDS011;11802;53.160;8.214;2023-12-22T14:33:12;9.80;;;1.97;;
23266;SDS011;11802;53.160;8.214;2023-12-22T14:35:38;6.97;;;1.70;;
23266;SDS011;11802;53.160;8.214;2023-12-22T14:38:04;9.13;;;1.47;;
23266;SDS011;11802;53.160;8.214;2023-12-22T14:40:29;4.00;;;0.97;;
23266;SDS011;11802;53.160;8.214;2023-12-22T14:42:55;4.43;;;0.93;;